Time;durP1;ratioP1;P1;durP2;ratioP2;P2;SDS_P1;SDS_P2;PMS_P1;PMS_P2;Temp;Humidity;BMP_temperature;BMP_pressure;BME280_temperature;BME280_humidity;BME280_pressure;Samples;Min_cycle;Max_cycle;Signal;HPM_P1;HPM_P2
2022/08/13 00:01:19;;;;;;;0.00;0.00;;;20.90;72.70;;;;;;4929219;29;20385;-85
2022/08/13 00:03:52;;;;;;;0.00;0.00;;;20.90;72.70;;;;;;4945852;29;20047;-86
2022/08/13 00:07:02;;;;;;;0.00;0.00;;;20.90;73.30;;;;;;4932699;29;20048;-86
2022/08/13 00:09:22;;;;;;;0.00;0.00;;;20.80;73.30;;;;;;4931869;29;20461;-86
2022/08/13 00:15:02;;;;;;;0.00;0.00;;;20.60;73.00;;;;;;4932820;29;20658;-86
2022/08/13 00:17:39;;;;;;;0.00;0.00;;;20.70;73.40;;;;;;4934450;29;20071;-86
2022/08/13 00:20:29;;;;;;;0.00;0.00;;;20.70;73.50;;;;;;4929787;29;20475;-85
2022/08/13 00:22:58;;;;;;;0.00;0.00;;;21.60;73.80;;;;;;4929326;29;20063;-86
2022/08/13 00:25:28;;;;;;;0.00;0.00;;;20.70;73.90;;;;;;4932079;29;20306;-86
2022/08/13 00:28:10;;;;;;;0.00;0.00;;;20.70;73.60;;;;;;4931091;29;20134;-85
2022/08/13 00:30:38;;;;;;;0.00;0.00;;;20.70;73.30;;;;;;4928938;29;20063;-86
2022/08/13 00:33:11;;;;;;;0.00;0.00;;;21.10;74.30;;;;;;4932551;29;20056;-85
2022/08/13 00:35:41;;;;;;;0.00;0.00;;;20.70;77.90;;;;;;4946861;28;20050;-85
2022/08/13 00:38:10;;;;;;;0.00;0.00;;;20.60;79.00;;;;;;4930898;29;20044;-85
2022/08/13 00:40:41;;;;;;;0.00;0.00;;;20.40;79.40;;;;;;4948645;29;20051;-86
2022/08/13 00:43:22;;;;;;;0.00;0.00;;;20.20;80.00;;;;;;4934523;29;20055;-85
2022/08/13 00:45:51;;;;;;;0.00;0.00;;;20.10;80.40;;;;;;4948787;28;20089;-86
2022/08/13 00:51:15;;;;;;;0.00;0.00;;;19.70;81.50;;;;;;4936612;29;20205;-86
2022/08/13 00:54:04;;;;;;;0.00;0.00;;;19.30;82.70;;;;;;4935418;29;20051;-85
2022/08/13 00:56:37;;;;;;;0.00;0.00;;;19.30;83.20;;;;;;4935236;29;20050;-86
2022/08/13 00:59:10;;;;;;;0.00;0.00;;;19.20;84.10;;;;;;4934162;29;20492;-85
2022/08/13 01:01:41;;;;;;;0.00;0.00;;;19.00;84.50;;;;;;4931937;29;20520;-86
2022/08/13 01:04:17;;;;;;;0.00;0.00;;;18.80;84.80;;;;;;4933843;29;20047;-86
2022/08/13 01:06:45;;;;;;;0.00;0.00;;;18.80;85.20;;;;;;4938313;29;20043;-85
2022/08/13 01:09:17;;;;;;;0.00;0.00;;;18.70;85.60;;;;;;4933067;29;20492;-86
2022/08/13 01:12:07;;;;;;;0.00;0.00;;;18.50;86.40;;;;;;4933549;29;20055;-86
2022/08/13 01:14:45;;;;;;;0.00;0.00;;;18.30;87.60;;;;;;4944773;28;20048;-86
2022/08/13 01:17:22;;;;;;;0.00;0.00;;;18.20;87.60;;;;;;4935975;29;20047;-86
2022/08/13 01:19:52;;;;;;;0.00;0.00;;;18.10;88.00;;;;;;4935726;29;20047;-85
2022/08/13 01:22:29;;;;;;;0.00;0.00;;;18.80;88.60;;;;;;4939584;29;20055;-86
2022/08/13 01:25:11;;;;;;;0.00;0.00;;;18.10;88.20;;;;;;4939182;29;20048;-85
2022/08/13 01:27:41;;;;;;;0.00;0.00;;;18.10;88.60;;;;;;4934749;29;20059;-85
2022/08/13 01:30:10;;;;;;;;;;;18.00;88.80;;;;;;4954029;29;20047;-86
2022/08/13 01:32:41;;;;;;;0.00;0.00;;;17.80;89.50;;;;;;4931269;29;20133;-85
2022/08/13 01:35:22;;;;;;;0.00;0.00;;;17.80;89.90;;;;;;4939966;29;20059;-86
2022/08/13 01:37:54;;;;;;;;;;;17.90;90.50;;;;;;4938862;29;20082;-85
2022/08/13 01:40:30;;;;;;;0.00;0.00;;;17.60;90.50;;;;;;4939675;29;19923;-86
2022/08/13 01:42:59;;;;;;;0.00;0.00;;;17.60;90.60;;;;;;4936959;29;20252;-83
2022/08/13 01:45:48;;;;;;;0.00;0.00;;;17.40;90.80;;;;;;4934145;29;20163;-85
2022/08/13 01:51:08;;;;;;;0.00;0.00;;;17.40;90.80;;;;;;4941489;29;20055;-85
2022/08/13 01:53:51;;;;;;;0.00;0.00;;;17.40;91.20;;;;;;4945798;28;20079;-85
2022/08/13 01:56:21;;;;;;;0.00;0.00;;;17.40;91.30;;;;;;4932468;29;20075;-85
2022/08/13 01:58:52;;;;;;;0.00;0.00;;;17.40;91.30;;;;;;4939605;29;20075;-86
2022/08/13 02:01:35;;;;;;;0.00;0.00;;;17.30;91.30;;;;;;4938191;29;20055;-85
2022/08/13 02:04:11;;;;;;;0.00;0.00;;;17.30;91.50;;;;;;4939045;29;20086;-87
2022/08/13 02:06:39;;;;;;;0.00;0.00;;;17.20;91.70;;;;;;4942884;29;20424;-85
2022/08/13 02:09:10;;;;;;;0.00;0.00;;;17.20;91.70;;;;;;4940859;29;20054;-86
2022/08/13 02:11:57;;;;;;;0.00;0.00;;;17.20;91.30;;;;;;4941538;29;20231;-86
2022/08/13 02:14:27;;;;;;;0.00;0.00;;;17.20;91.20;;;;;;4938451;29;20048;-86
2022/08/13 02:16:54;;;;;;;0.00;0.00;;;;;;;;;;4939130;29;20060;-86
2022/08/13 02:19:21;;;;;;;0.10;0.10;;;17.20;90.50;;;;;;4944846;29;20075;-86
2022/08/13 02:21:58;;;;;;;0.00;0.00;;;17.30;90.80;;;;;;4942107;29;20043;-85
2022/08/13 02:24:29;;;;;;;0.00;0.00;;;17.30;91.00;;;;;;4937905;29;20078;-85
2022/08/13 02:26:57;;;;;;;0.00;0.00;;;17.30;90.70;;;;;;4943712;29;20055;-85
2022/08/13 02:29:25;;;;;;;0.00;0.00;;;17.30;90.70;;;;;;4939058;29;20107;-85
2022/08/13 02:31:52;;;;;;;0.00;0.00;;;17.30;90.70;;;;;;4939917;29;20051;-85
2022/08/13 02:34:32;;;;;;;0.00;0.00;;;17.30;90.50;;;;;;4939537;29;20059;-86
2022/08/13 02:37:04;;;;;;;0.00;0.00;;;17.30;90.50;;;;;;4941788;29;20039;-85
2022/08/13 02:39:52;;;;;;;0.10;0.10;;;17.40;90.60;;;;;;4940280;29;20066;-86
2022/08/13 02:42:21;;;;;;;0.00;0.00;;;17.30;90.60;;;;;;4958844;28;20043;-84
2022/08/13 02:44:50;;;;;;;0.00;0.00;;;17.30;90.60;;;;;;4937770;29;20059;-83
2022/08/13 02:47:19;;;;;;;0.00;0.00;;;17.40;90.50;;;;;;4945366;29;20052;-85
2022/08/13 02:50:07;;;;;;;0.00;0.00;;;17.40;90.50;;;;;;4954525;28;20056;-85
2022/08/13 02:52:37;;;;;;;0.00;0.00;;;17.40;90.60;;;;;;4940962;29;20516;-83
2022/08/13 02:55:17;;;;;;;;;;;17.30;90.80;;;;;;4943397;29;20051;-85
2022/08/13 02:57:44;;;;;;;0.00;0.00;;;17.30;90.60;;;;;;4942749;29;19926;-83
2022/08/13 03:00:19;;;;;;;0.00;0.00;;;17.30;90.80;;;;;;4941075;29;20051;-85
2022/08/13 03:02:57;;;;;;;0.00;0.00;;;17.10;91.30;;;;;;4940819;29;20083;-86
2022/08/13 03:05:31;;;;;;;0.00;0.00;;;17.10;91.70;;;;;;4940503;29;20043;-85
2022/08/13 03:08:18;;;;;;;0.00;0.00;;;17.00;91.90;;;;;;4941409;29;20487;-86
2022/08/13 03:11:06;;;;;;;0.00;0.00;;;16.90;92.30;;;;;;4941177;29;20074;-85
2022/08/13 03:13:37;;;;;;;0.00;0.00;;;17.60;92.70;;;;;;4938977;29;20051;-84
2022/08/13 03:16:14;;;;;;;0.00;0.00;;;16.80;92.80;;;;;;4956053;28;20083;-85
2022/08/13 03:18:43;;;;;;;0.00;0.00;;;16.70;92.80;;;;;;4945555;29;20086;-85
2022/08/13 03:21:22;;;;;;;0.00;0.00;;;16.70;92.80;;;;;;4944129;29;20047;-84
2022/08/13 03:24:13;;;;;;;0.00;0.00;;;16.70;92.70;;;;;;4942076;29;20054;-84
2022/08/13 03:26:57;;;;;;;0.00;0.00;;;16.70;92.50;;;;;;4942660;29;20488;-86
2022/08/13 03:29:24;;;;;;;0.00;0.00;;;16.20;92.90;;;;;;4949532;29;20508;-86
2022/08/13 03:32:13;;;;;;;0.00;0.00;;;16.50;93.30;;;;;;4954464;28;20043;-85
2022/08/13 03:34:40;;;;;;;0.00;0.00;;;16.30;94.20;;;;;;4959173;28;20051;-85
2022/08/13 03:37:09;;;;;;;0.00;0.00;;;16.30;94.00;;;;;;4944816;29;20502;-84
2022/08/13 03:39:36;;;;;;;0.00;0.00;;;16.30;94.30;;;;;;4944968;29;20044;-85
2022/08/13 03:42:09;;;;;;;0.00;0.00;;;16.20;94.30;;;;;;4946181;29;20051;-85
2022/08/13 03:44:38;;;;;;;0.00;0.00;;;16.20;94.70;;;;;;4944182;29;20051;-83
2022/08/13 03:47:06;;;;;;;0.00;0.00;;;16.10;94.90;;;;;;4944284;29;20059;-85
2022/08/13 03:49:52;;;;;;;0.00;0.00;;;16.40;94.70;;;;;;4950002;29;20122;-85
2022/08/13 03:52:20;;;;;;;0.00;0.00;;;16.20;94.40;;;;;;4946252;29;20059;-85
2022/08/13 03:55:00;;;;;;;0.00;0.00;;;16.20;94.50;;;;;;4946778;29;20066;-85
2022/08/13 03:57:30;;;;;;;0.00;0.00;;;16.20;94.20;;;;;;4962103;28;20058;-85
2022/08/13 04:00:17;;;;;;;0.00;0.00;;;16.20;94.50;;;;;;4948892;29;20074;-85
2022/08/13 04:02:43;;;;;;;0.00;0.00;;;16.20;94.80;;;;;;4951653;29;20094;-84
2022/08/13 04:05:16;;;;;;;0.00;0.00;;;16.20;94.70;;;;;;4954630;29;20055;-84
2022/08/13 04:07:50;;;;;;;0.00;0.00;;;16.10;95.30;;;;;;4946217;29;20063;-85
2022/08/13 04:10:23;;;;;;;0.00;0.00;;;16.00;95.20;;;;;;4947341;29;20130;-84
2022/08/13 04:12:51;;;;;;;0.00;0.00;;;16.10;94.90;;;;;;4950607;29;20076;-85
2022/08/13 04:15:19;;;;;;;0.00;0.00;;;16.10;95.20;;;;;;4943545;29;20055;-85
2022/08/13 04:17:46;;;;;;;0.00;0.00;;;16.10;95.60;;;;;;4963845;29;20059;-85
2022/08/13 04:20:14;;;;;;;0.00;0.00;;;16.00;95.80;;;;;;4947442;29;20060;-85
2022/08/13 04:22:42;;;;;;;0.00;0.00;;;16.10;95.80;;;;;;4949379;29;20068;-85
2022/08/13 04:25:09;;;;;;;0.00;0.00;;;16.00;96.00;;;;;;4943888;29;20082;-85
2022/08/13 04:27:58;;;;;;;0.00;0.00;;;16.00;96.20;;;;;;4960541;28;20054;-85
2022/08/13 04:30:30;;;;;;;0.00;0.00;;;16.00;96.10;;;;;;4962489;28;20055;-84
2022/08/13 04:32:59;;;;;;;0.00;0.00;;;16.00;96.40;;;;;;4947875;29;20052;-85
2022/08/13 04:35:46;;;;;;;0.00;0.00;;;16.00;96.40;;;;;;4947305;29;20071;-84
2022/08/13 04:38:24;;;;;;;0.00;0.00;;;16.00;96.70;;;;;;4949912;29;20067;-85
2022/08/13 04:40:52;;;;;;;0.00;0.00;;;16.00;96.90;;;;;;4948563;29;20059;-84
2022/08/13 04:43:25;;;;;;;0.00;0.00;;;16.00;97.00;;;;;;4949165;29;20039;-83
2022/08/13 04:46:00;;;;;;;0.00;0.00;;;16.00;97.30;;;;;;4941680;29;20047;-84
2022/08/13 04:48:31;;;;;;;0.00;0.00;;;15.90;97.70;;;;;;4950350;29;20496;-85
2022/08/13 04:50:59;;;;;;;0.00;0.00;;;16.40;98.00;;;;;;4945945;29;20062;-84
2022/08/13 04:53:28;;;;;;;0.00;0.00;;;15.90;97.90;;;;;;4949467;29;20044;-85
2022/08/13 04:55:58;;;;;;;0.00;0.00;;;15.80;97.90;;;;;;4944264;29;20138;-84
2022/08/13 04:58:40;;;;;;;0.00;0.00;;;15.90;97.90;;;;;;4963309;28;20048;-85
2022/08/13 05:01:10;;;;;;;0.00;0.00;;;15.90;98.10;;;;;;4961833;29;20047;-86
2022/08/13 05:03:57;;;;;;;0.00;0.00;;;15.80;98.70;;;;;;4946319;29;20103;-85
2022/08/13 05:06:49;;;;;;;0.00;0.00;;;15.90;98.70;;;;;;4943822;29;20058;-84
2022/08/13 05:09:18;;;;;;;0.00;0.00;;;15.90;98.80;;;;;;4962482;29;20102;-86
2022/08/13 05:11:46;;;;;;;0.00;0.00;;;16.00;99.30;;;;;;4949698;29;20047;-85
2022/08/13 05:14:33;;;;;;;0.00;0.00;;;15.90;98.90;;;;;;4948815;29;20044;-84
2022/08/13 05:17:04;;;;;;;0.00;0.00;;;16.00;99.30;;;;;;4963644;29;20043;-86
2022/08/13 05:19:31;;;;;;;0.00;0.00;;;16.00;99.30;;;;;;4951064;29;20055;-86
2022/08/13 05:22:05;;;;;;;0.00;0.00;;;16.10;99.00;;;;;;4945122;29;20056;-84
2022/08/13 05:24:41;;;;;;;0.00;0.00;;;16.10;99.30;;;;;;4943825;29;20126;-85
2022/08/13 05:27:27;;;;;;;0.00;0.00;;;16.40;99.90;;;;;;4940722;29;20044;-86
2022/08/13 05:30:03;;;;;;;0.00;0.00;;;16.10;99.70;;;;;;4961523;29;20067;-86
2022/08/13 05:32:50;;;;;;;0.00;0.00;;;16.10;99.70;;;;;;4944550;29;20054;-85
2022/08/13 05:35:17;;;;;;;0.00;0.00;;;16.20;99.70;;;;;;4943987;29;21590;-86
2022/08/13 05:38:04;;;;;;;0.00;0.00;;;16.20;99.90;;;;;;4949048;29;20067;-85
2022/08/13 05:40:47;;;;;;;0.00;0.00;;;16.40;99.90;;;;;;4945363;29;20043;-85
2022/08/13 05:43:24;;;;;;;0.00;0.00;;;16.40;99.90;;;;;;4945877;29;20047;-85
2022/08/13 05:45:59;;;;;;;0.00;0.00;;;16.50;99.90;;;;;;4960504;29;20071;-86
2022/08/13 05:48:34;;;;;;;0.00;0.00;;;16.60;99.90;;;;;;4948190;29;20059;-86
2022/08/13 05:51:03;;;;;;;0.00;0.00;;;16.50;99.90;;;;;;4943166;29;20063;-85
2022/08/13 05:53:35;;;;;;;0.00;0.00;;;16.50;99.90;;;;;;4961537;29;20040;-84
2022/08/13 05:56:11;;;;;;;0.00;0.00;;;16.60;99.90;;;;;;4959549;28;20062;-85
2022/08/13 05:58:44;;;;;;;0.00;0.00;;;16.80;99.90;;;;;;4941986;29;20583;-86
2022/08/13 06:04:08;;;;;;;0.00;0.00;;;17.00;99.90;;;;;;4943043;29;20044;-86
2022/08/13 06:06:56;;;;;;;0.00;0.00;;;17.20;99.70;;;;;;4942641;29;20051;-84
2022/08/13 06:09:25;;;;;;;0.00;0.00;;;17.30;99.50;;;;;;4942774;29;20051;-85
2022/08/13 06:11:59;;;;;;;0.00;0.00;;;17.50;99.10;;;;;;4960098;29;20051;-85
2022/08/13 06:14:46;;;;;;;0.00;0.00;;;17.60;98.80;;;;;;4937976;29;20051;-86
2022/08/13 06:17:22;;;;;;;0.00;0.00;;;17.80;98.80;;;;;;4939048;29;20118;-86
2022/08/13 06:19:51;;;;;;;0.00;0.00;;;17.90;98.70;;;;;;4937932;29;20103;-84
2022/08/13 06:22:22;;;;;;;0.00;0.00;;;18.10;99.10;;;;;;4939555;29;20044;-86
2022/08/13 06:24:50;;;;;;;0.00;0.00;;;18.20;99.20;;;;;;4937411;29;20052;-86
2022/08/13 06:27:21;;;;;;;0.00;0.00;;;18.30;99.20;;;;;;4934589;29;20048;-85
2022/08/13 06:30:09;;;;;;;0.00;0.00;;;18.50;98.70;;;;;;4946058;28;20068;-85
2022/08/13 06:32:38;;;;;;;0.00;0.00;;;18.60;98.30;;;;;;4951611;29;20075;-85
2022/08/13 06:35:24;;;;;;;0.00;0.00;;;18.80;97.30;;;;;;4932545;29;20054;-86
2022/08/13 06:38:12;;;;;;;0.00;0.00;;;18.90;96.60;;;;;;4932415;29;20107;-85
2022/08/13 06:40:54;;;;;;;0.00;0.00;;;19.10;95.30;;;;;;4933254;29;20050;-85
2022/08/13 06:43:22;;;;;;;0.00;0.00;;;19.30;95.90;;;;;;4929988;29;20040;-85
2022/08/13 06:45:49;;;;;;;0.00;0.00;;;19.40;94.50;;;;;;4929647;29;20055;-85
2022/08/13 06:48:22;;;;;;;0.00;0.00;;;19.80;94.40;;;;;;4932881;29;20051;-85
2022/08/13 06:51:01;;;;;;;;;;;19.70;94.20;;;;;;4933497;29;20086;-84
2022/08/13 06:53:29;;;;;;;0.00;0.00;;;19.80;93.90;;;;;;4930702;29;19922;-85
2022/08/13 06:56:18;;;;;;;0.00;0.00;;;19.90;93.10;;;;;;4943573;28;20451;-87
2022/08/13 06:59:03;;;;;;;0.00;0.00;;;20.10;92.80;;;;;;4927536;29;20272;-86
2022/08/13 07:01:41;;;;;;;0.00;0.00;;;20.20;92.20;;;;;;4929852;29;20039;-86
2022/08/13 07:04:29;;;;;;;0.00;0.00;;;20.40;91.80;;;;;;4937105;29;20040;-86
2022/08/13 07:06:57;;;;;;;0.00;0.00;;;20.50;91.10;;;;;;4928416;29;20078;-86
2022/08/13 07:09:24;;;;;;;0.00;0.00;;;20.60;90.50;;;;;;4925059;29;20059;-86
2022/08/13 07:11:58;;;;;;;0.00;0.00;;;20.60;90.40;;;;;;4934412;29;20062;-85
2022/08/13 07:14:26;;;;;;;0.00;0.00;;;20.80;90.80;;;;;;4948408;28;20050;-87
2022/08/13 07:16:56;;;;;;;0.00;0.00;;;20.90;90.50;;;;;;4931701;29;20055;-86
2022/08/13 07:19:24;;;;;;;0.00;0.00;;;21.00;90.60;;;;;;4930633;29;20043;-85
2022/08/13 07:22:12;;;;;;;0.00;0.00;;;21.10;90.40;;;;;;4946425;28;20405;-86
2022/08/13 07:25:00;;;;;;;0.00;0.00;;;21.20;89.60;;;;;;4936962;29;20046;-85
2022/08/13 07:27:27;;;;;;;0.08;0.08;;;21.30;87.80;;;;;;4946953;29;20360;-85
2022/08/13 07:29:55;;;;;;;0.00;0.00;;;22.90;89.70;;;;;;4936272;29;20106;-86
2022/08/13 07:32:24;;;;;;;0.00;0.00;;;21.60;87.90;;;;;;4934380;29;20099;-85
2022/08/13 07:34:58;;;;;;;0.00;0.00;;;21.70;87.20;;;;;;4947678;29;20083;-85
2022/08/13 07:37:27;;;;;;;0.00;0.00;;;21.70;86.00;;;;;;4931761;29;20154;-84
2022/08/13 07:39:59;;;;;;;0.00;0.00;;;21.90;86.50;;;;;;4936466;29;20050;-85
2022/08/13 07:42:28;;;;;;;0.00;0.00;;;23.20;86.20;;;;;;4941874;29;20087;-85
2022/08/13 07:44:57;;;;;;;0.00;0.00;;;23.10;86.00;;;;;;4934554;29;20048;-85
2022/08/13 07:47:50;;;;;;;0.00;0.00;;;22.20;85.50;;;;;;4935878;29;20052;-85
2022/08/13 07:50:37;;;;;;;0.00;0.00;;;22.40;83.80;;;;;;4934153;29;20047;-85
2022/08/13 07:53:10;;;;;;;0.00;0.00;;;22.40;83.50;;;;;;4932312;29;20054;-85
2022/08/13 07:55:43;;;;;;;0.00;0.00;;;22.60;84.50;;;;;;4928467;29;20487;-85
2022/08/13 07:58:33;;;;;;;0.00;0.00;;;24.40;84.70;;;;;;4934546;29;20066;-85
2022/08/13 08:01:02;;;;;;;0.00;0.00;;;22.80;83.90;;;;;;4934800;29;20047;-83
2022/08/13 08:03:32;;;;;;;0.00;0.00;;;23.00;83.80;;;;;;4930763;29;20051;-85
2022/08/13 08:06:19;;;;;;;0.00;0.00;;;23.00;82.90;;;;;;4930483;29;20054;-86
2022/08/13 08:08:58;;;;;;;0.00;0.00;;;23.20;81.90;;;;;;4929762;29;20047;-84
2022/08/13 08:14:20;;;;;;;0.00;0.00;;;23.40;81.60;;;;;;4928800;29;20043;-85
2022/08/13 08:16:59;;;;;;;0.00;0.00;;;23.50;81.30;;;;;;4931253;29;20055;-84
2022/08/13 08:19:50;;;;;;;0.00;0.00;;;;;;;;;;4928704;29;20142;-85
2022/08/13 08:22:40;;;;;;;0.00;0.00;;;23.70;79.80;;;;;;4941525;28;20074;-85
2022/08/13 08:25:16;;;;;;;0.00;0.00;;;23.90;80.30;;;;;;4928412;29;20527;-84
2022/08/13 08:27:47;;;;;;;0.00;0.00;;;24.00;82.40;;;;;;4931778;29;20583;-86
2022/08/13 08:30:34;;;;;;;0.00;0.00;;;25.20;81.20;;;;;;4934430;29;20057;-86
2022/08/13 08:33:04;;;;;;;0.00;0.00;;;24.30;80.50;;;;;;4933070;28;20059;-82
2022/08/13 08:35:38;;;;;;;0.00;0.00;;;24.30;80.50;;;;;;4948012;28;20050;-85
2022/08/13 08:44:18;;;;;;;0.00;0.00;;;24.60;78.60;;;;;;4930849;29;20106;-84
2022/08/13 08:46:47;;;;;;;0.00;0.00;;;25.30;79.90;;;;;;4932579;29;20047;-85
2022/08/13 08:49:15;;;;;;;0.00;0.00;;;24.80;79.40;;;;;;4935023;29;20055;-85
2022/08/13 08:52:03;;;;;;;0.00;0.00;;;24.90;79.60;;;;;;4935634;29;20039;-85
2022/08/13 08:54:31;;;;;;;0.00;0.00;;;25.00;80.00;;;;;;4934971;29;20508;-86
2022/08/13 08:57:04;;;;;;;0.00;0.00;;;25.10;80.00;;;;;;4932908;29;20123;-82
2022/08/13 08:59:35;;;;;;;0.00;0.00;;;25.20;79.30;;;;;;4926888;29;20044;-85
2022/08/13 09:02:19;;;;;;;0.00;0.00;;;25.30;79.00;;;;;;4931510;29;20056;-85
2022/08/13 09:04:54;;;;;;;0.00;0.00;;;25.30;79.30;;;;;;4930276;29;20489;-86
2022/08/13 09:07:45;;;;;;;0.00;0.00;;;25.40;79.80;;;;;;4946584;29;20051;-84
2022/08/13 09:10:15;;;;;;;0.00;0.00;;;25.50;79.70;;;;;;4933741;29;20052;-85
2022/08/13 09:12:56;;;;;;;0.00;0.00;;;25.60;79.30;;;;;;4932275;29;20043;-86
2022/08/13 09:15:23;;;;;;;0.00;0.00;;;25.70;79.70;;;;;;4931914;29;20056;-86
2022/08/13 09:17:58;;;;;;;0.00;0.00;;;26.00;79.30;;;;;;4933416;29;20311;-85
2022/08/13 09:20:28;;;;;;;0.00;0.00;;;25.90;78.60;;;;;;4934686;29;20048;-85
2022/08/13 09:23:03;;;;;;;0.00;0.00;;;25.90;77.90;;;;;;4949935;28;20090;-85
2022/08/13 09:25:48;;;;;;;0.00;0.00;;;26.00;79.50;;;;;;4933388;29;20038;-85
2022/08/13 09:28:26;;;;;;;0.00;0.00;;;26.10;78.00;;;;;;4930818;29;20067;-85
2022/08/13 09:31:02;;;;;;;0.00;0.00;;;26.10;78.10;;;;;;4934251;29;20048;-84
2022/08/13 09:33:31;;;;;;;0.00;0.00;;;26.20;77.90;;;;;;4934272;29;20155;-85
2022/08/13 09:36:22;;;;;;;0.00;0.00;;;26.20;77.80;;;;;;4945655;29;20055;-84
2022/08/13 09:38:50;;;;;;;0.00;0.00;;;26.30;77.40;;;;;;4949302;29;20500;-83
2022/08/13 09:41:24;;;;;;;0.00;0.00;;;26.90;78.50;;;;;;4933915;29;20102;-84
2022/08/13 09:43:53;;;;;;;0.00;0.00;;;26.30;77.50;;;;;;4934143;29;20500;-86
2022/08/13 09:46:23;;;;;;;0.00;0.00;;;26.40;77.10;;;;;;4930585;29;20107;-86
2022/08/13 09:48:56;;;;;;;0.00;0.00;;;26.50;76.60;;;;;;4933921;29;20056;-86
2022/08/13 09:51:32;;;;;;;0.00;0.00;;;26.50;75.90;;;;;;4934202;29;20043;-85
2022/08/13 09:54:22;;;;;;;0.00;0.00;;;26.60;76.90;;;;;;4934896;29;20044;-86
2022/08/13 09:56:57;;;;;;;0.00;0.00;;;27.90;79.80;;;;;;4932975;29;20052;-86
2022/08/13 09:59:28;;;;;;;0.00;0.00;;;26.90;76.60;;;;;;4930988;29;20048;-85
2022/08/13 10:01:59;;;;;;;0.00;0.00;;;26.90;76.80;;;;;;4931777;29;20099;-85
2022/08/13 10:04:29;;;;;;;0.00;0.00;;;27.10;77.50;;;;;;4932863;29;20047;-85
2022/08/13 10:07:00;;;;;;;0.00;0.00;;;27.10;77.10;;;;;;4944043;28;20473;-85
2022/08/13 10:09:37;;;;;;;0.00;0.00;;;27.20;76.50;;;;;;4943809;28;20060;-83
2022/08/13 10:12:21;;;;;;;0.00;0.00;;;27.10;75.30;;;;;;4931402;29;20047;-84
2022/08/13 10:14:49;;;;;;;0.00;0.00;;;27.00;77.20;;;;;;4929997;29;20068;-86
2022/08/13 10:17:24;;;;;;;0.00;0.00;;;27.10;75.90;;;;;;4932309;29;20488;-85
2022/08/13 10:20:12;;;;;;;0.00;0.00;;;27.20;76.50;;;;;;4926075;29;20050;-85
2022/08/13 10:22:42;;;;;;;0.00;0.00;;;27.20;74.40;;;;;;4925407;29;20417;-84
2022/08/13 10:25:10;;;;;;;0.00;0.00;;;27.20;75.10;;;;;;4924100;29;20535;-84
2022/08/13 10:27:37;;;;;;;0.00;0.00;;;27.00;74.40;;;;;;4924924;29;20083;-85
2022/08/13 10:30:18;;;;;;;0.00;0.00;;;27.50;74.40;;;;;;4929562;29;20110;-85
2022/08/13 10:33:05;;;;;;;0.00;0.00;;;27.70;74.90;;;;;;4926644;29;20428;-86
2022/08/13 10:35:35;;;;;;;0.00;0.00;;;27.70;74.20;;;;;;4928685;29;20115;-84
2022/08/13 10:38:14;;;;;;;0.00;0.00;;;28.50;75.40;;;;;;4927091;29;20614;-85
2022/08/13 10:40:41;;;;;;;0.00;0.00;;;27.80;76.30;;;;;;4933997;29;20051;-85
2022/08/13 10:43:12;;;;;;;0.00;0.00;;;28.10;76.00;;;;;;4932121;29;20741;-85
2022/08/13 10:45:52;;;;;;;0.00;0.00;;;28.20;74.60;;;;;;4940106;29;20052;-85
2022/08/13 10:48:19;;;;;;;0.00;0.00;;;28.30;74.80;;;;;;4932911;29;20055;-85
2022/08/13 10:50:46;;;;;;;0.00;0.00;;;28.30;74.40;;;;;;4946831;28;20102;-85
2022/08/13 10:56:09;;;;;;;0.00;0.00;;;28.40;73.10;;;;;;4936978;29;20055;-85
2022/08/13 10:58:37;;;;;;;0.00;0.00;;;28.10;75.10;;;;;;4936620;29;20063;-84
2022/08/13 11:01:20;;;;;;;0.00;0.00;;;28.20;77.20;;;;;;4948740;29;20127;-85
2022/08/13 11:03:47;;;;;;;0.00;0.00;;;30.20;76.00;;;;;;4932818;29;20055;-86
2022/08/13 11:06:30;;;;;;;0.00;0.00;;;28.70;75.50;;;;;;4946927;29;20047;-85
2022/08/13 11:09:01;;;;;;;0.00;0.00;;;28.70;73.80;;;;;;4941308;28;20078;-85
2022/08/13 11:11:48;;;;;;;0.00;0.00;;;29.40;74.40;;;;;;4945441;28;20412;-85
2022/08/13 11:14:21;;;;;;;0.00;0.00;;;28.70;74.00;;;;;;4944698;29;20051;-85
2022/08/13 11:16:56;;;;;;;0.00;0.00;;;28.70;72.80;;;;;;4930210;29;20047;-85
2022/08/13 11:19:33;;;;;;;0.00;0.00;;;28.70;72.50;;;;;;4947847;28;20055;-85
2022/08/13 11:22:19;;;;;;;0.00;0.00;;;28.70;72.90;;;;;;4942656;29;20476;-84
2022/08/13 11:24:54;;;;;;;0.00;0.00;;;28.70;73.30;;;;;;4929727;29;20051;-85
2022/08/13 11:27:21;;;;;;;0.00;0.00;;;28.60;74.00;;;;;;4935200;29;20055;-85
2022/08/13 11:29:53;;;;;;;0.00;0.00;;;28.70;74.10;;;;;;4934345;29;20071;-85
2022/08/13 11:32:22;;;;;;;0.00;0.00;;;28.90;71.90;;;;;;4932929;29;20059;-83
2022/08/13 11:34:53;;;;;;;0.00;0.00;;;29.00;73.20;;;;;;4927059;29;20130;-86
2022/08/13 11:37:21;;;;;;;0.00;0.00;;;;;;;;;;4930634;29;20118;-85
2022/08/13 11:39:48;;;;;;;0.00;0.00;;;29.20;70.80;;;;;;4948530;28;20044;-86
2022/08/13 11:42:35;;;;;;;0.00;0.00;;;29.40;72.90;;;;;;4949294;29;20142;-86
2022/08/13 11:45:04;;;;;;;0.00;0.00;;;29.30;73.20;;;;;;4936500;29;20050;-85
2022/08/13 11:47:38;;;;;;;0.00;0.00;;;29.50;70.40;;;;;;4934571;29;20062;-86
2022/08/13 11:50:12;;;;;;;0.00;0.00;;;29.50;70.10;;;;;;4931260;29;20502;-85
2022/08/13 11:52:42;;;;;;;0.00;0.00;;;;;;;;;;4937407;29;20055;-85
2022/08/13 11:55:09;;;;;;;0.00;0.00;;;29.80;70.80;;;;;;4935155;29;20059;-88
2022/08/13 11:57:43;;;;;;;0.00;0.00;;;29.80;69.30;;;;;;4947373;29;20107;-86
2022/08/13 12:00:14;;;;;;;0.00;0.00;;;29.90;69.30;;;;;;4935866;29;20050;-87
2022/08/13 12:02:56;;;;;;;0.00;0.00;;;29.90;69.60;;;;;;4937781;29;20488;-84
2022/08/13 12:05:23;;;;;;;0.00;0.00;;;30.00;70.50;;;;;;4936426;29;20051;-86
2022/08/13 12:07:54;;;;;;;0.00;0.00;;;30.70;69.70;;;;;;4939437;29;20043;-86
2022/08/13 12:10:26;;;;;;;0.00;0.00;;;30.10;70.70;;;;;;4936061;29;20055;-87
2022/08/13 12:13:14;;;;;;;0.00;0.00;;;30.40;70.30;;;;;;4939585;29;20059;-87
2022/08/13 12:15:41;;;;;;;0.00;0.00;;;29.80;69.60;;;;;;4951580;29;20047;-87
2022/08/13 12:18:29;;;;;;;0.00;0.00;;;29.90;67.50;;;;;;4933466;29;20043;-88
2022/08/13 12:20:56;;;;;;;0.00;0.00;;;29.70;67.40;;;;;;4940572;29;20603;-87
2022/08/13 12:23:26;;;;;;;0.00;0.00;;;29.60;68.50;;;;;;4951573;29;20032;-88
2022/08/13 12:26:01;;;;;;;0.00;0.00;;;29.70;67.40;;;;;;4942510;29;20051;-88
2022/08/13 12:28:31;;;;;;;0.00;0.00;;;31.20;69.20;;;;;;4943813;29;20054;-87
2022/08/13 12:31:00;;;;;;;0.00;0.00;;;30.80;68.50;;;;;;4938408;29;20100;-87
2022/08/13 12:33:33;;;;;;;0.00;0.00;;;29.90;67.50;;;;;;4954938;29;20052;-86
2022/08/13 12:36:07;;;;;;;0.00;0.00;;;30.50;69.40;;;;;;4944053;29;20044;-87
2022/08/13 12:38:35;;;;;;;0.00;0.00;;;;;;;;;;4941946;29;20476;-86
2022/08/13 12:41:03;;;;;;;0.00;0.00;;;29.90;64.50;;;;;;4939756;29;20048;-88
2022/08/13 12:43:46;;;;;;;0.00;0.00;;;29.60;67.30;;;;;;4942598;29;20052;-87
2022/08/13 12:46:32;;;;;;;0.00;0.00;;;29.50;68.50;;;;;;4955474;28;20107;-87
2022/08/13 12:49:03;;;;;;;0.00;0.00;;;30.20;68.30;;;;;;4940369;29;20173;-88
2022/08/13 12:51:40;;;;;;;;;;;29.90;68.60;;;;;;4940148;29;20047;-87
2022/08/13 12:54:25;;;;;;;0.00;0.00;;;29.90;69.30;;;;;;4938105;29;19966;-86
2022/08/13 12:57:13;;;;;;;0.00;0.00;;;29.80;67.20;;;;;;4942898;29;20419;-86
2022/08/13 13:00:00;;;;;;;0.00;0.00;;;;;;;;;;4941010;29;20053;-87
2022/08/13 13:02:29;;;;;;;0.00;0.00;;;30.00;68.80;;;;;;4961575;28;20471;-87
2022/08/13 13:04:58;;;;;;;0.00;0.00;;;30.00;68.90;;;;;;4940244;29;20054;-86
2022/08/13 13:07:44;;;;;;;0.00;0.00;;;30.60;68.70;;;;;;4943232;29;20131;-85
2022/08/13 13:10:33;;;;;;;0.00;0.00;;;30.20;68.70;;;;;;4945835;29;20110;-87
2022/08/13 13:13:00;;;;;;;0.00;0.00;;;30.00;69.50;;;;;;4939638;29;20046;-87
2022/08/13 13:15:27;;;;;;;0.00;0.00;;;30.20;69.10;;;;;;4942747;29;20098;-87
2022/08/13 13:18:16;;;;;;;0.00;0.00;;;30.30;68.80;;;;;;4956247;28;20047;-86
2022/08/13 13:21:04;;;;;;;0.00;0.00;;;30.20;68.80;;;;;;4943218;29;20043;-88
2022/08/13 13:23:35;;;;;;;0.00;0.00;;;30.30;69.70;;;;;;4943041;29;20055;-85
2022/08/13 13:26:22;;;;;;;0.00;0.00;;;30.30;68.10;;;;;;4956305;29;20044;-87
2022/08/13 13:28:52;;;;;;;0.00;0.00;;;30.40;68.00;;;;;;4938883;29;20055;-88
2022/08/13 13:31:19;;;;;;;0.10;0.00;;;30.40;67.90;;;;;;4945414;29;20055;-87
2022/08/13 13:34:05;;;;;;;0.00;0.00;;;30.90;67.10;;;;;;4933136;29;20138;-85
2022/08/13 13:36:34;;;;;;;0.00;0.00;;;30.30;67.60;;;;;;4933206;29;20083;-84
2022/08/13 13:39:01;;;;;;;0.00;0.00;;;30.40;68.60;;;;;;4941817;29;20039;-86
2022/08/13 13:41:28;;;;;;;0.00;0.00;;;30.40;66.60;;;;;;4940322;29;20059;-87
2022/08/13 13:44:15;;;;;;;0.00;0.00;;;30.50;66.00;;;;;;4937085;29;20055;-86
2022/08/13 13:47:01;;;;;;;0.00;0.00;;;30.50;67.10;;;;;;4938891;29;20066;-84
2022/08/13 13:49:28;;;;;;;0.00;0.00;;;30.70;66.50;;;;;;4943107;29;20055;-87
2022/08/13 13:51:59;;;;;;;0.00;0.00;;;30.50;66.30;;;;;;4942641;29;20055;-86
2022/08/13 13:54:28;;;;;;;0.00;0.00;;;30.40;66.20;;;;;;4944657;29;20492;-87